Time;durP1;ratioP1;P1;durP2;ratioP2;P2;SDS_P1;SDS_P2;PMS_P1;PMS_P2;Temp;Humidity;BMP_temperature;BMP_pressure;BME280_temperature;BME280_humidity;BME280_pressure;Samples;Min_cycle;Max_cycle;Signal;HPM_P1;HPM_P2
2023/03/05 00:01:17;;;;;;;37.80;12.57;;;4.80;99.90;;;;;;4982749;28;20105;-73
2023/03/05 00:03:42;;;;;;;;;;;4.90;99.90;;;;;;4988922;28;20062;-72
2023/03/05 00:06:08;;;;;;;32.73;11.83;;;4.80;99.90;;;;;;4987832;28;19987;-71
2023/03/05 00:08:35;;;;;;;43.03;13.47;;;4.90;99.90;;;;;;4978061;28;20461;-72
2023/03/05 00:11:04;;;;;;;40.80;13.03;;;4.80;99.90;;;;;;4983710;28;20027;-73
2023/03/05 00:13:30;;;;;;;34.47;12.30;;;4.70;99.90;;;;;;4984504;28;20030;-73
2023/03/05 00:15:56;;;;;;;37.77;12.50;;;4.70;99.90;;;;;;4991665;28;20056;-73
2023/03/05 00:18:21;;;;;;;34.63;12.80;;;4.70;99.90;;;;;;4979773;28;20109;-71
2023/03/05 00:20:47;;;;;;;34.40;12.07;;;4.80;99.90;;;;;;4988698;28;20063;-71
2023/03/05 00:23:13;;;;;;;34.90;12.77;;;4.80;99.90;;;;;;4986677;28;20084;-72
2023/03/05 00:25:39;;;;;;;38.40;12.17;;;4.80;99.90;;;;;;4981696;28;20023;-71
2023/03/05 00:28:06;;;;;;;31.30;11.57;;;4.80;99.90;;;;;;4976944;28;20022;-73
2023/03/05 00:30:32;;;;;;;36.03;12.43;;;4.80;99.90;;;;;;4991605;28;20396;-72
2023/03/05 00:32:57;;;;;;;41.27;12.77;;;4.70;99.90;;;;;;4985061;28;20110;-72
2023/03/05 00:35:23;;;;;;;34.93;12.30;;;4.70;99.90;;;;;;4983261;28;20039;-72
2023/03/05 00:37:49;;;;;;;34.50;11.73;;;4.80;99.90;;;;;;4990586;28;20035;-73
2023/03/05 00:40:15;;;;;;;37.03;11.90;;;4.70;99.90;;;;;;4977416;28;20023;-72
2023/03/05 00:42:41;;;;;;;41.50;13.10;;;4.70;99.90;;;;;;4981938;28;20019;-72
2023/03/05 00:45:08;;;;;;;33.73;11.97;;;4.70;99.90;;;;;;4986477;28;20066;-71
2023/03/05 00:47:33;;;;;;;36.67;12.13;;;4.60;99.90;;;;;;4988622;28;20117;-72
2023/03/05 00:49:59;;;;;;;39.27;13.07;;;4.70;99.90;;;;;;4979348;28;20173;-72
2023/03/05 00:52:25;;;;;;;40.93;12.90;;;4.70;99.90;;;;;;4994867;28;20027;-72
2023/03/05 00:54:51;;;;;;;33.63;12.80;;;4.60;99.90;;;;;;4988204;28;20081;-72
2023/03/05 00:57:16;;;;;;;36.60;13.37;;;4.60;99.90;;;;;;4987352;28;20141;-72
2023/03/05 00:59:42;;;;;;;37.23;12.57;;;4.60;99.90;;;;;;4964337;28;20023;-71
2023/03/05 01:02:08;;;;;;;37.17;12.40;;;4.60;99.90;;;;;;4992359;28;20329;-72
2023/03/05 01:04:33;;;;;;;35.77;12.60;;;4.60;99.90;;;;;;4991452;28;20030;-72
2023/03/05 01:06:59;;;;;;;40.33;13.07;;;4.60;99.90;;;;;;4995620;28;20036;-71
2023/03/05 01:09:25;;;;;;;39.90;12.93;;;4.60;99.90;;;;;;4983818;28;20082;-71
2023/03/05 01:11:51;;;;;;;36.00;13.07;;;4.60;99.90;;;;;;4973698;28;20082;-72
2023/03/05 01:14:17;;;;;;;41.27;13.23;;;4.60;99.90;;;;;;4979703;28;20463;-71
2023/03/05 01:16:43;;;;;;;36.60;12.30;;;4.60;99.90;;;;;;4978501;28;20084;-72
2023/03/05 01:19:08;;;;;;;35.90;12.77;;;4.60;99.90;;;;;;4968027;28;20026;-72
2023/03/05 01:21:35;;;;;;;34.80;12.00;;;4.60;99.90;;;;;;4971858;28;20132;-72
2023/03/05 01:24:01;;;;;;;38.67;12.40;;;4.60;99.90;;;;;;4961659;28;20023;-72
2023/03/05 01:26:27;;;;;;;32.03;12.10;;;4.60;99.90;;;;;;4991455;28;20420;-72
2023/03/05 01:28:53;;;;;;;35.13;12.10;;;4.50;99.90;;;;;;4964750;28;20014;-71
2023/03/05 01:31:19;;;;;;;31.67;11.87;;;4.50;99.90;;;;;;4966831;28;20448;-72
2023/03/05 01:33:45;;;;;;;36.37;12.50;;;4.50;99.90;;;;;;4990210;28;20100;-72
2023/03/05 01:36:14;;;;;;;34.47;12.57;;;4.50;99.90;;;;;;4977618;28;20460;-71
2023/03/05 01:38:44;;;;;;;36.13;12.37;;;4.50;99.90;;;;;;4972097;28;20489;-72
2023/03/05 01:41:11;;;;;;;32.93;13.53;;;4.60;99.90;;;;;;4985421;28;20486;-73
2023/03/05 01:43:36;;;;;;;40.03;13.17;;;4.50;99.90;;;;;;4964545;28;20023;-72
2023/03/05 01:46:26;;;;;;;33.47;11.93;;;4.50;99.90;;;;;;4974034;28;20023;-71
2023/03/05 01:49:18;;;;;;;36.80;13.40;;;4.50;99.90;;;;;;4965519;28;20015;-75
2023/03/05 01:51:52;;;;;;;41.95;13.18;;;4.50;99.90;;;;;;4978111;28;20026;-71
2023/03/05 01:54:21;;;;;;;45.10;13.37;;;4.50;99.90;;;;;;4977588;28;20030;-71
2023/03/05 01:56:49;;;;;;;33.33;11.70;;;4.50;99.90;;;;;;4977693;28;20332;-71
2023/03/05 01:59:15;;;;;;;35.43;12.40;;;4.50;99.90;;;;;;4994909;28;20024;-72
2023/03/05 02:01:44;;;;;;;37.10;12.57;;;4.50;99.90;;;;;;4977922;28;20022;-72
2023/03/05 02:04:13;;;;;;;43.27;12.63;;;4.50;99.90;;;;;;4977147;28;20483;-72
2023/03/05 02:06:41;;;;;;;33.40;12.40;;;4.50;99.90;;;;;;4995316;28;20026;-72
2023/03/05 02:09:07;;;;;;;37.63;12.47;;;4.40;99.90;;;;;;4977290;28;20025;-72
2023/03/05 02:11:33;;;;;;;37.37;12.10;;;4.40;99.90;;;;;;4995212;28;20068;-72
2023/03/05 02:14:00;;;;;;;35.63;12.07;;;4.40;99.90;;;;;;4977021;28;20128;-72
2023/03/05 02:16:34;;;;;;;35.33;11.80;;;4.40;99.90;;;;;;4994955;28;20035;-72
2023/03/05 02:19:04;;;;;;;40.27;12.43;;;4.40;99.90;;;;;;4994661;28;20054;-72
2023/03/05 02:21:56;;;;;;;32.73;12.03;;;4.40;99.90;;;;;;4977555;28;20034;-72
2023/03/05 02:24:35;;;;;;;39.03;13.07;;;4.40;99.90;;;;;;4990213;28;20120;-71
2023/03/05 02:27:03;;;;;;;35.03;12.03;;;4.50;99.90;;;;;;4976883;28;20026;-71
2023/03/05 02:29:31;;;;;;;35.40;12.03;;;4.50;99.90;;;;;;4994770;28;20054;-70
2023/03/05 02:31:57;;;;;;;42.77;12.80;;;4.40;99.90;;;;;;4994149;28;20022;-71
2023/03/05 02:34:23;;;;;;;34.93;12.53;;;4.50;99.90;;;;;;4977144;28;20475;-71
2023/03/05 02:36:49;;;;;;;39.90;12.33;;;4.50;99.90;;;;;;4977215;28;20416;-71
2023/03/05 02:39:16;;;;;;;35.27;12.07;;;4.50;99.90;;;;;;4976216;28;20142;-71
2023/03/05 02:41:42;;;;;;;36.93;12.07;;;4.40;99.90;;;;;;4977194;28;20060;-71
2023/03/05 02:44:08;;;;;;;40.43;12.60;;;4.40;99.90;;;;;;4976599;28;20120;-72
2023/03/05 02:46:33;;;;;;;37.90;11.83;;;4.50;99.90;;;;;;4977115;28;20455;-71
2023/03/05 02:48:59;;;;;;;35.83;12.80;;;4.50;99.90;;;;;;4976250;28;20422;-72
2023/03/05 02:51:25;;;;;;;34.10;12.50;;;4.40;99.90;;;;;;4977068;28;20057;-71
2023/03/05 02:53:50;;;;;;;34.70;12.70;;;4.50;99.90;;;;;;4994277;28;20048;-72
2023/03/05 02:56:16;;;;;;;40.77;13.00;;;4.40;99.90;;;;;;4993952;28;20050;-72
2023/03/05 02:58:42;;;;;;;38.97;13.33;;;4.40;99.90;;;;;;4994280;28;20030;-72
2023/03/05 03:01:09;;;;;;;44.23;13.00;;;4.40;99.90;;;;;;4976224;28;20117;-71
2023/03/05 03:03:34;;;;;;;31.50;12.23;;;4.40;99.90;;;;;;4976731;28;20030;-71
2023/03/05 03:06:00;;;;;;;40.60;12.67;;;4.40;99.90;;;;;;4993828;28;20509;-72
2023/03/05 03:08:27;;;;;;;36.50;12.53;;;4.40;99.90;;;;;;4976778;28;20121;-72
2023/03/05 03:10:55;;;;;;;45.00;12.90;;;4.40;99.90;;;;;;4976603;28;20053;-71
2023/03/05 03:13:24;;;;;;;39.20;13.30;;;4.40;99.90;;;;;;4975931;28;20019;-71
2023/03/05 03:15:59;;;;;;;36.13;12.27;;;4.40;99.90;;;;;;4976571;28;20041;-72
2023/03/05 03:18:25;;;;;;;33.80;12.07;;;4.40;99.90;;;;;;4994261;28;20363;-72
2023/03/05 03:20:50;;;;;;;38.33;13.00;;;4.40;99.90;;;;;;4976485;28;20023;-72
2023/03/05 03:23:16;;;;;;;44.13;13.53;;;4.40;99.90;;;;;;4975969;28;20524;-72
2023/03/05 03:25:42;;;;;;;37.83;13.43;;;4.40;99.90;;;;;;4993806;28;20031;-71
2023/03/05 03:28:07;;;;;;;36.00;12.43;;;4.40;99.90;;;;;;4975798;28;20029;-72
2023/03/05 03:30:33;;;;;;;38.60;13.30;;;4.30;99.90;;;;;;4976333;28;20022;-72
2023/03/05 03:32:58;;;;;;;39.37;13.07;;;4.40;99.90;;;;;;4993248;28;20088;-72
2023/03/05 03:35:24;;;;;;;46.20;13.97;;;4.30;99.90;;;;;;4976419;28;20041;-72
2023/03/05 03:37:49;;;;;;;45.37;13.93;;;4.40;99.90;;;;;;4976268;28;20455;-72
2023/03/05 03:40:15;;;;;;;42.57;13.70;;;4.30;99.90;;;;;;4975782;28;20018;-72
2023/03/05 03:42:41;;;;;;;44.87;13.70;;;4.30;99.90;;;;;;4976332;28;20042;-72
2023/03/05 03:45:07;;;;;;;40.50;13.83;;;4.30;99.90;;;;;;4992738;28;20049;-72
2023/03/05 03:47:32;;;;;;;43.63;14.17;;;4.30;99.90;;;;;;4993526;28;20030;-71
2023/03/05 03:49:58;;;;;;;41.70;13.47;;;4.30;99.90;;;;;;4992999;28;20029;-77
2023/03/05 03:52:25;;;;;;;36.50;12.70;;;4.30;99.90;;;;;;4975328;28;20026;-71
2023/03/05 03:54:51;;;;;;;34.90;11.70;;;4.30;99.90;;;;;;4992983;28;20500;-71
2023/03/05 03:57:18;;;;;;;38.67;13.63;;;4.30;99.90;;;;;;4975231;28;20038;-71
2023/03/05 03:59:44;;;;;;;38.77;12.20;;;4.30;99.90;;;;;;4976121;28;20085;-71
2023/03/05 04:02:10;;;;;;;35.50;12.97;;;4.30;99.90;;;;;;4975295;28;20121;-71
2023/03/05 04:04:36;;;;;;;39.27;13.07;;;4.30;99.90;;;;;;4975599;28;20137;-71
2023/03/05 04:07:01;;;;;;;36.93;12.23;;;4.30;99.90;;;;;;4992704;28;20073;-71
2023/03/05 04:09:27;;;;;;;45.97;14.47;;;4.30;99.90;;;;;;4993231;28;20032;-70
2023/03/05 04:11:53;;;;;;;36.70;13.17;;;4.30;99.90;;;;;;4975720;28;20026;-71
2023/03/05 04:14:18;;;;;;;42.87;13.53;;;4.30;99.90;;;;;;4975137;28;20030;-71
2023/03/05 04:16:44;;;;;;;38.17;13.23;;;4.30;99.90;;;;;;4975814;28;20089;-71
2023/03/05 04:19:09;;;;;;;43.30;13.87;;;4.30;99.90;;;;;;4992295;28;20124;-71
2023/03/05 04:21:35;;;;;;;40.23;13.03;;;4.30;99.90;;;;;;4975720;28;20026;-71
2023/03/05 04:24:00;;;;;;;39.80;13.30;;;4.30;99.90;;;;;;4975278;28;20072;-73
2023/03/05 04:26:26;;;;;;;40.50;11.47;;;4.30;99.90;;;;;;4993053;28;20448;-71
2023/03/05 04:28:52;;;;;;;37.73;12.90;;;4.30;99.90;;;;;;4975816;28;20470;-71
2023/03/05 04:31:19;;;;;;;37.40;12.50;;;4.20;99.90;;;;;;4992283;28;20157;-71
2023/03/05 04:33:44;;;;;;;37.13;13.60;;;4.30;99.90;;;;;;4975444;28;20061;-72
2023/03/05 04:36:10;;;;;;;41.93;13.40;;;4.30;99.90;;;;;;4992524;28;20471;-72
2023/03/05 04:38:36;;;;;;;34.10;12.37;;;4.20;99.90;;;;;;4993010;28;20440;-72
2023/03/05 04:41:01;;;;;;;37.63;12.20;;;4.20;99.90;;;;;;4974788;28;20109;-75
2023/03/05 04:43:27;;;;;;;41.00;12.43;;;4.20;99.90;;;;;;4975589;28;20022;-72
2023/03/05 04:45:54;;;;;;;37.57;12.30;;;4.20;99.90;;;;;;4975239;28;20177;-72
2023/03/05 04:48:20;;;;;;;38.00;13.13;;;4.20;99.90;;;;;;4974926;28;20141;-72
2023/03/05 04:50:45;;;;;;;40.00;13.33;;;4.20;99.90;;;;;;4975461;28;20109;-72
2023/03/05 04:53:11;;;;;;;39.50;12.47;;;4.20;99.90;;;;;;4974972;28;20025;-72
2023/03/05 04:55:36;;;;;;;43.97;13.50;;;4.30;99.90;;;;;;4992758;28;20054;-72
2023/03/05 04:58:02;;;;;;;35.43;13.27;;;4.20;99.90;;;;;;4975160;28;20022;-77
2023/03/05 05:00:28;;;;;;;41.03;13.70;;;4.20;99.90;;;;;;4992561;28;20523;-72
2023/03/05 05:02:54;;;;;;;40.33;12.63;;;4.20;99.90;;;;;;4977279;28;20161;-72
2023/03/05 05:05:23;;;;;;;41.80;13.70;;;4.30;99.90;;;;;;4978339;28;20030;-72
2023/03/05 05:07:52;;;;;;;40.30;13.03;;;4.20;99.90;;;;;;4979091;28;20029;-72
2023/03/05 05:10:18;;;;;;;39.80;12.73;;;4.20;99.90;;;;;;4995868;28;20512;-71
2023/03/05 05:12:43;;;;;;;45.27;13.00;;;4.20;99.90;;;;;;4978970;28;20018;-71
2023/03/05 05:15:11;;;;;;;42.43;13.73;;;4.30;99.90;;;;;;4995701;28;20113;-72
2023/03/05 05:17:36;;;;;;;40.77;14.00;;;4.20;99.90;;;;;;4978765;28;20026;-71
2023/03/05 05:20:07;;;;;;;38.47;13.63;;;4.20;99.90;;;;;;4978665;28;20045;-71
2023/03/05 05:22:33;;;;;;;31.50;9.95;;;4.20;99.90;;;;;;4978883;28;20123;-71
2023/03/05 05:24:59;;;;;;;41.40;13.60;;;4.20;99.90;;;;;;4978307;28;20041;-71
2023/03/05 05:27:25;;;;;;;37.40;13.77;;;4.20;99.90;;;;;;4995222;28;20026;-71
2023/03/05 05:29:51;;;;;;;38.10;13.97;;;4.20;99.90;;;;;;4978479;28;20029;-71
2023/03/05 05:32:18;;;;;;;39.03;13.37;;;4.20;99.90;;;;;;4977936;28;20061;-71
2023/03/05 05:34:44;;;;;;;37.57;13.97;;;4.20;99.90;;;;;;4996071;28;20053;-71
2023/03/05 05:37:10;;;;;;;38.27;13.20;;;4.30;99.90;;;;;;4977905;28;20034;-71
2023/03/05 05:39:36;;;;;;;42.90;13.93;;;4.20;99.90;;;;;;4978331;28;20108;-71
2023/03/05 05:42:02;;;;;;;38.40;13.00;;;4.20;99.90;;;;;;4978297;28;20022;-72
2023/03/05 05:44:27;;;;;;;35.53;12.20;;;4.20;99.90;;;;;;4995149;28;20030;-71
2023/03/05 05:46:53;;;;;;;39.87;12.87;;;4.20;99.90;;;;;;4995914;28;20041;-71
2023/03/05 05:49:18;;;;;;;39.83;13.83;;;4.20;99.90;;;;;;4977658;28;20042;-71
2023/03/05 05:51:44;;;;;;;41.90;14.93;;;4.20;99.90;;;;;;4978343;28;20371;-71
2023/03/05 05:54:12;;;;;;;39.83;14.17;;;4.20;99.90;;;;;;4977472;28;20133;-72
2023/03/05 05:56:38;;;;;;;37.53;14.07;;;4.20;99.90;;;;;;4996028;28;20050;-71
2023/03/05 05:59:04;;;;;;;44.23;14.37;;;4.20;99.90;;;;;;4977958;28;20029;-72
2023/03/05 06:01:31;;;;;;;38.73;13.17;;;4.20;99.90;;;;;;4977313;28;20527;-71
2023/03/05 06:03:57;;;;;;;46.83;14.40;;;4.20;99.90;;;;;;4995285;28;20057;-71
2023/03/05 06:06:24;;;;;;;43.03;13.57;;;4.20;99.90;;;;;;4994767;28;20022;-71
2023/03/05 06:08:51;;;;;;;43.07;13.83;;;4.20;99.90;;;;;;4977811;28;20037;-71
2023/03/05 06:11:17;;;;;;;42.90;13.53;;;4.20;99.90;;;;;;4977298;28;20044;-71
2023/03/05 06:13:43;;;;;;;42.93;13.83;;;4.20;99.90;;;;;;4994297;28;20037;-71
2023/03/05 06:16:16;;;;;;;38.57;13.10;;;4.20;99.90;;;;;;4994528;28;20022;-71
2023/03/05 06:18:41;;;;;;;41.83;13.80;;;4.20;99.90;;;;;;4977239;28;20029;-71
2023/03/05 06:21:10;;;;;;;41.67;13.63;;;4.10;99.90;;;;;;4994739;28;20022;-74
2023/03/05 06:23:36;;;;;;;42.03;13.47;;;4.20;99.90;;;;;;4977170;28;20025;-71
2023/03/05 06:26:04;;;;;;;44.13;13.23;;;4.10;99.90;;;;;;4977533;28;20109;-72
2023/03/05 06:28:30;;;;;;;39.17;12.93;;;4.20;99.90;;;;;;4976970;28;20075;-71
2023/03/05 06:31:05;;;;;;;41.43;14.27;;;4.20;99.90;;;;;;4977432;28;20030;-71
2023/03/05 06:33:32;;;;;;;40.13;13.23;;;4.20;99.90;;;;;;4994058;28;20026;-71
2023/03/05 06:35:58;;;;;;;37.13;12.93;;;4.20;99.90;;;;;;4976907;28;20061;-71
2023/03/05 06:38:24;;;;;;;35.77;13.30;;;4.30;99.90;;;;;;4976679;28;20482;-71
2023/03/05 06:40:50;;;;;;;35.37;13.00;;;4.30;99.90;;;;;;4977242;28;20022;-71
2023/03/05 06:43:16;;;;;;;39.47;12.93;;;4.30;99.90;;;;;;4994184;28;20014;-72
2023/03/05 06:45:41;;;;;;;41.73;13.40;;;4.30;99.90;;;;;;4977138;28;20030;-71
2023/03/05 06:48:07;;;;;;;39.13;12.43;;;4.30;99.90;;;;;;4977072;28;20084;-72
2023/03/05 06:50:36;;;;;;;41.27;13.20;;;4.30;99.90;;;;;;4976475;28;20026;-71
2023/03/05 06:53:02;;;;;;;40.63;14.57;;;4.40;99.90;;;;;;4976978;28;20026;-71
2023/03/05 06:55:28;;;;;;;42.57;14.23;;;4.40;99.90;;;;;;4982269;28;20050;-71
2023/03/05 06:57:53;;;;;;;44.23;13.97;;;4.40;99.90;;;;;;4993129;28;20030;-71
2023/03/05 07:00:20;;;;;;;41.03;13.40;;;4.40;99.90;;;;;;4994082;28;20023;-71
2023/03/05 07:02:45;;;;;;;42.50;13.97;;;4.40;99.90;;;;;;4993012;28;20046;-71
2023/03/05 07:05:11;;;;;;;44.50;13.37;;;4.40;99.90;;;;;;4992440;28;20116;-72
2023/03/05 07:07:37;;;;;;;43.27;14.43;;;4.40;99.90;;;;;;4994198;28;20452;-71
2023/03/05 07:10:06;;;;;;;36.67;12.73;;;4.40;99.90;;;;;;4993879;28;20026;-71
2023/03/05 07:12:32;;;;;;;38.80;13.47;;;4.30;99.90;;;;;;4992317;28;20018;-71
2023/03/05 07:14:58;;;;;;;39.13;13.83;;;4.30;99.90;;;;;;4992725;28;20428;-71
2023/03/05 07:17:24;;;;;;;35.13;12.47;;;4.40;99.90;;;;;;4993479;28;20046;-70
2023/03/05 07:19:49;;;;;;;46.07;14.27;;;4.40;99.90;;;;;;4992816;28;20113;-71
2023/03/05 07:22:15;;;;;;;41.10;13.93;;;4.40;99.90;;;;;;4992205;28;20019;-71
2023/03/05 07:24:40;;;;;;;45.37;14.77;;;4.50;99.90;;;;;;4992574;28;20061;-71
2023/03/05 07:27:06;;;;;;;35.23;12.27;;;4.50;99.90;;;;;;4992643;28;20077;-71
2023/03/05 07:29:32;;;;;;;38.47;13.33;;;4.50;99.90;;;;;;4991982;28;20030;-71
2023/03/05 07:31:57;;;;;;;38.33;13.03;;;4.50;99.90;;;;;;4993777;28;20034;-72
2023/03/05 07:34:23;;;;;;;48.00;14.50;;;4.50;99.90;;;;;;4993172;28;20125;-72
2023/03/05 07:36:50;;;;;;;42.70;13.73;;;4.60;99.90;;;;;;4992441;28;20034;-72
2023/03/05 07:39:18;;;;;;;39.80;14.07;;;4.60;99.90;;;;;;4991976;28;20475;-72
2023/03/05 07:41:48;;;;;;;38.73;13.50;;;4.60;99.90;;;;;;4994017;28;20051;-72
2023/03/05 07:44:14;;;;;;;44.03;14.20;;;4.60;99.90;;;;;;4993073;28;20030;-73
2023/03/05 07:46:40;;;;;;;46.00;13.37;;;4.60;99.90;;;;;;4993536;28;20101;-72
2023/03/05 07:49:06;;;;;;;33.73;12.50;;;4.60;99.90;;;;;;4992201;28;20455;-70
2023/03/05 07:51:31;;;;;;;37.03;13.67;;;4.70;99.90;;;;;;4991581;28;20022;-70
2023/03/05 07:53:58;;;;;;;38.70;13.00;;;4.70;99.90;;;;;;4993520;28;20029;-70
2023/03/05 07:56:34;;;;;;;37.90;13.73;;;4.80;99.90;;;;;;4993033;28;20116;-70
2023/03/05 07:59:01;;;;;;;36.43;12.80;;;4.80;99.90;;;;;;4975931;28;20056;-70
2023/03/05 08:01:28;;;;;;;40.43;12.63;;;4.80;99.90;;;;;;4975400;28;20037;-70
2023/03/05 08:03:57;;;;;;;38.83;13.10;;;4.90;99.90;;;;;;4993109;28;20037;-70
2023/03/05 08:06:23;;;;;;;40.57;13.87;;;5.00;99.90;;;;;;4975272;28;20093;-70
2023/03/05 08:08:48;;;;;;;35.67;13.63;;;5.00;99.90;;;;;;4976013;28;20030;-70
2023/03/05 08:11:15;;;;;;;33.80;12.83;;;5.10;99.90;;;;;;4992691;28;20030;-73
2023/03/05 08:13:41;;;;;;;38.97;13.20;;;5.00;99.90;;;;;;4992786;28;20026;-69
2023/03/05 08:16:10;;;;;;;34.33;12.83;;;5.10;99.90;;;;;;4993283;28;20486;-70
2023/03/05 08:18:36;;;;;;;37.33;13.13;;;5.10;99.90;;;;;;4975266;28;20022;-70
2023/03/05 08:21:02;;;;;;;36.97;13.43;;;5.10;99.90;;;;;;4993200;28;20019;-70
2023/03/05 08:23:28;;;;;;;40.87;13.13;;;5.10;99.90;;;;;;4975035;28;20027;-71
2023/03/05 08:25:54;;;;;;;35.97;13.23;;;5.20;99.90;;;;;;4975618;28;20060;-71
2023/03/05 08:28:20;;;;;;;33.17;12.10;;;5.20;99.90;;;;;;4992547;28;20066;-71
2023/03/05 08:30:47;;;;;;;40.10;13.87;;;5.30;99.90;;;;;;4975660;28;20474;-70
2023/03/05 08:33:13;;;;;;;36.80;12.67;;;5.40;99.90;;;;;;4993115;28;20097;-71
2023/03/05 08:35:39;;;;;;;36.13;12.53;;;5.40;99.90;;;;;;4992036;28;20222;-71
2023/03/05 08:38:05;;;;;;;34.87;12.87;;;5.40;99.90;;;;;;4977893;28;20124;-71
2023/03/05 08:40:31;;;;;;;36.40;11.80;;;5.40;99.90;;;;;;4996320;28;20029;-71
2023/03/05 08:43:01;;;;;;;34.57;12.03;;;5.40;99.90;;;;;;4996489;28;20093;-72
2023/03/05 08:45:27;;;;;;;35.23;12.53;;;5.50;99.90;;;;;;4995981;28;20029;-71
2023/03/05 08:47:56;;;;;;;31.70;12.00;;;5.50;99.90;;;;;;4979316;28;20094;-71
2023/03/05 08:50:23;;;;;;;35.47;12.07;;;5.50;99.90;;;;;;4978766;28;20018;-71
2023/03/05 08:52:49;;;;;;;35.73;13.60;;;5.60;99.90;;;;;;4978947;28;20023;-71
2023/03/05 08:55:15;;;;;;;34.73;13.13;;;5.60;99.90;;;;;;4983166;28;20395;-71
2023/03/05 08:57:40;;;;;;;41.07;12.80;;;5.60;99.90;;;;;;4996097;28;20033;-71
2023/03/05 09:00:09;;;;;;;36.10;13.53;;;5.70;99.90;;;;;;4995365;28;20025;-71
2023/03/05 09:02:35;;;;;;;32.50;12.23;;;5.70;99.90;;;;;;4994808;28;20076;-71
2023/03/05 09:05:01;;;;;;;30.93;12.00;;;5.70;99.90;;;;;;4996582;28;20026;-71
2023/03/05 09:07:26;;;;;;;37.73;12.13;;;5.70;99.90;;;;;;4994660;28;20026;-71
2023/03/05 09:09:52;;;;;;;33.10;12.80;;;5.70;99.90;;;;;;4996504;28;20018;-71
2023/03/05 09:12:17;;;;;;;37.77;13.47;;;5.80;99.90;;;;;;4995923;28;20057;-76
2023/03/05 09:14:43;;;;;;;34.70;13.00;;;5.80;99.90;;;;;;4996330;28;20033;-71
2023/03/05 09:17:09;;;;;;;34.97;12.50;;;5.70;99.90;;;;;;4994657;28;20034;-71
2023/03/05 09:19:34;;;;;;;34.10;13.43;;;5.70;99.90;;;;;;4994618;28;20443;-71
2023/03/05 09:22:00;;;;;;;32.90;13.13;;;5.70;99.90;;;;;;4994951;28;20136;-72
2023/03/05 09:24:26;;;;;;;30.77;12.70;;;5.70;99.90;;;;;;4994092;28;20526;-73
2023/03/05 09:26:52;;;;;;;43.77;14.23;;;5.70;99.90;;;;;;4994890;28;20122;-72
2023/03/05 09:29:17;;;;;;;37.67;12.67;;;5.80;99.90;;;;;;4996431;28;20045;-72
2023/03/05 09:31:43;;;;;;;30.90;12.30;;;5.90;99.90;;;;;;4994567;28;20081;-73
2023/03/05 09:34:10;;;;;;;31.37;11.83;;;5.90;99.90;;;;;;4994672;28;20042;-72
2023/03/05 09:36:36;;;;;;;36.37;11.53;;;5.90;99.90;;;;;;4994204;28;20027;-73
2023/03/05 09:39:03;;;;;;;31.27;11.63;;;5.90;99.90;;;;;;4995882;28;20034;-72
2023/03/05 09:42:06;;;;;;;27.80;11.37;;;5.90;99.90;;;;;;4993793;28;20054;-72
2023/03/05 09:44:56;;;;;;;34.20;11.90;;;5.80;99.90;;;;;;4995261;28;20022;-72
2023/03/05 09:47:37;;;;;;;36.00;11.50;;;5.90;99.90;;;;;;4995202;28;20062;-72
2023/03/05 09:50:02;;;;;;;33.10;12.20;;;5.90;99.90;;;;;;4985635;28;20117;-72
2023/03/05 09:52:54;;;;;;;30.73;11.20;;;5.90;99.90;;;;;;4977066;28;20106;-73
2023/03/05 09:55:32;;;;;;;29.40;10.73;;;5.90;99.90;;;;;;4989347;28;20174;-78
2023/03/05 09:58:04;;;;;;;26.53;11.07;;;6.00;99.90;;;;;;4973861;28;20023;-73
2023/03/05 10:00:39;;;;;;;29.00;12.00;;;6.00;99.90;;;;;;4986913;28;20030;-73
2023/03/05 10:03:15;;;;;;;28.67;11.27;;;6.00;99.90;;;;;;4977151;28;20027;-72
2023/03/05 10:05:48;;;;;;;30.43;11.47;;;6.00;99.90;;;;;;4993303;28;20097;-72
2023/03/05 10:08:18;;;;;;;31.37;11.40;;;6.00;99.90;;;;;;4983097;28;20119;-72
2023/03/05 10:10:49;;;;;;;26.70;11.20;;;6.10;99.90;;;;;;4987687;28;20026;-72
2023/03/05 10:13:23;;;;;;;28.07;10.70;;;6.00;99.90;;;;;;4978797;28;20019;-72
2023/03/05 10:15:54;;;;;;;26.87;10.30;;;6.10;99.90;;;;;;4988073;28;20388;-72
2023/03/05 10:18:23;;;;;;;27.17;11.18;;;6.00;99.90;;;;;;4985454;28;20126;-79
2023/03/05 10:21:08;;;;;;;27.67;10.80;;;6.00;99.90;;;;;;4978745;28;20027;-72
2023/03/05 10:23:48;;;;;;;27.10;10.83;;;6.00;99.90;;;;;;4978505;28;20471;-72
2023/03/05 10:26:31;;;;;;;26.47;10.50;;;6.00;99.90;;;;;;4983333;28;20448;-72
2023/03/05 10:29:20;;;;;;;31.17;11.17;;;6.00;99.90;;;;;;4990492;28;20018;-72
2023/03/05 10:32:23;;;;;;;27.97;10.23;;;6.00;99.90;;;;;;4981630;28;20018;-72
2023/03/05 10:35:20;;;;;;;28.40;10.27;;;6.00;99.90;;;;;;4979377;28;20070;-72
2023/03/05 10:38:17;;;;;;;31.07;11.07;;;6.00;99.90;;;;;;4935160;28;20038;-72
2023/03/05 10:40:51;;;;;;;27.67;10.30;;;6.00;99.90;;;;;;4987170;28;20018;-72
2023/03/05 10:43:19;;;;;;;27.73;10.73;;;5.90;99.90;;;;;;4977072;28;20050;-73
2023/03/05 10:45:48;;;;;;;26.17;10.43;;;6.00;99.90;;;;;;4986245;28;20444;-71
2023/03/05 10:48:32;;;;;;;29.10;10.73;;;6.10;99.90;;;;;;4982616;28;20026;-72
2023/03/05 10:51:38;;;;;;;27.60;9.77;;;6.00;99.90;;;;;;4976627;28;20031;-71
2023/03/05 10:54:12;;;;;;;25.60;9.00;;;6.00;99.90;;;;;;4979327;28;20042;-72
2023/03/05 10:56:37;;;;;;;26.67;9.90;;;6.00;99.90;;;;;;4978718;28;20498;-72
2023/03/05 10:59:03;;;;;;;27.70;10.77;;;6.00;99.90;;;;;;4989237;28;20079;-72
2023/03/05 11:01:32;;;;;;;22.07;9.37;;;6.10;99.90;;;;;;4977670;28;20018;-73
2023/03/05 11:04:07;;;;;;;27.27;10.37;;;6.10;99.90;;;;;;4984710;28;20054;-73
2023/03/05 11:06:38;;;;;;;23.13;8.97;;;6.10;99.90;;;;;;4986428;28;20022;-72
2023/03/05 11:09:31;;;;;;;25.73;9.02;;;6.10;99.90;;;;;;4977524;28;20091;-72
2023/03/05 11:12:08;;;;;;;25.77;9.57;;;6.10;99.90;;;;;;4986092;28;20018;-74
2023/03/05 11:14:37;;;;;;;23.33;9.60;;;6.10;99.90;;;;;;4986799;28;20087;-72
2023/03/05 11:17:27;;;;;;;23.50;9.33;;;6.10;99.90;;;;;;4976305;28;20360;-74
2023/03/05 11:19:53;;;;;;;25.83;9.77;;;6.10;99.90;;;;;;4986491;28;20022;-72
2023/03/05 11:22:21;;;;;;;28.10;9.83;;;6.10;99.90;;;;;;4983646;28;20153;-73
2023/03/05 11:25:09;;;;;;;24.17;9.50;;;6.10;99.90;;;;;;4979124;28;20027;-72
2023/03/05 11:27:43;;;;;;;21.60;8.70;;;6.00;99.90;;;;;;4964023;28;20041;-72
2023/03/05 11:30:38;;;;;;;24.70;9.57;;;6.10;99.90;;;;;;4973274;28;20106;-72
2023/03/05 11:33:06;;;;;;;25.20;9.40;;;6.00;99.90;;;;;;4956555;28;20035;-72
2023/03/05 11:35:35;;;;;;;26.00;10.20;;;6.00;99.90;;;;;;4972244;28;20042;-72
2023/03/05 11:38:02;;;;;;;25.40;9.47;;;6.10;99.90;;;;;;4972911;28;20468;-72
2023/03/05 11:40:31;;;;;;;25.50;9.43;;;6.10;99.90;;;;;;4977859;28;20018;-73
2023/03/05 11:42:59;;;;;;;28.63;9.97;;;6.20;99.90;;;;;;4989438;28;20433;-73
2023/03/05 11:45:27;;;;;;;24.53;10.30;;;6.20;99.90;;;;;;4981875;28;20034;-73
2023/03/05 11:47:56;;;;;;;24.20;9.87;;;6.30;99.90;;;;;;4987980;28;20121;-72
2023/03/05 11:50:23;;;;;;;24.73;10.73;;;6.30;99.90;;;;;;4989095;28;20376;-72
2023/03/05 11:52:53;;;;;;;25.30;10.50;;;6.20;99.90;;;;;;4992301;28;20061;-72
2023/03/05 11:55:24;;;;;;;25.33;10.23;;;6.20;99.90;;;;;;4986042;28;20047;-72
2023/03/05 11:58:03;;;;;;;24.50;10.48;;;6.20;99.90;;;;;;4992307;28;20022;-72
2023/03/05 12:00:31;;;;;;;24.57;10.67;;;6.20;99.90;;;;;;4991737;28;20034;-73
2023/03/05 12:03:02;;;;;;;27.57;10.70;;;6.20;99.90;;;;;;4989078;28;20022;-72
2023/03/05 12:05:30;;;;;;;27.13;10.53;;;6.20;99.90;;;;;;4980047;28;20027;-72
2023/03/05 12:07:59;;;;;;;22.63;10.07;;;6.20;99.90;;;;;;4978167;28;20053;-72
2023/03/05 12:10:25;;;;;;;20.67;10.20;;;6.20;99.90;;;;;;4986114;28;20073;-73
2023/03/05 12:13:22;;;;;;;24.37;9.97;;;6.30;99.90;;;;;;4990751;28;20030;-72
2023/03/05 12:16:06;;;;;;;25.83;10.50;;;6.30;99.90;;;;;;4986258;28;20023;-72
2023/03/05 12:18:44;;;;;;;26.60;9.87;;;6.30;99.90;;;;;;4983471;28;20459;-72
2023/03/05 12:21:16;;;;;;;26.97;10.10;;;6.30;99.90;;;;;;4986746;28;20181;-72
2023/03/05 12:23:50;;;;;;;23.87;10.00;;;6.30;99.90;;;;;;4976925;28;20463;-72
2023/03/05 12:26:17;;;;;;;19.83;9.70;;;6.30;99.90;;;;;;4981537;28;20027;-72
2023/03/05 12:28:48;;;;;;;27.93;10.07;;;6.30;99.90;;;;;;4984604;28;20022;-71
2023/03/05 12:31:32;;;;;;;24.93;10.17;;;6.30;99.90;;;;;;4976865;28;20023;-72
2023/03/05 12:33:58;;;;;;;22.53;9.50;;;6.30;99.90;;;;;;4986525;28;20021;-71
2023/03/05 12:36:31;;;;;;;25.93;11.03;;;6.30;99.90;;;;;;4983041;28;20363;-71
2023/03/05 12:38:57;;;;;;;25.03;10.40;;;6.40;99.90;;;;;;4977721;28;20069;-71
2023/03/05 12:41:22;;;;;;;26.50;10.37;;;6.40;99.90;;;;;;4989290;28;20101;-71
2023/03/05 12:44:06;;;;;;;26.40;10.20;;;6.40;99.90;;;;;;4976222;28;20062;-72
2023/03/05 12:46:37;;;;;;;28.13;10.50;;;6.40;99.90;;;;;;4981317;28;20023;-72